Time;durP1;ratioP1;P1;durP2;ratioP2;P2;SDS_P1;SDS_P2;PMS_P1;PMS_P2;Temp;Humidity;BMP_temperature;BMP_pressure;BME280_temperature;BME280_humidity;BME280_pressure;Samples;Min_cycle;Max_cycle;Signal;HPM_P1;HPM_P2
2022/03/29 00:00:57;;;;;;;57.30;29.05;;;;;;;7.71;82.08;101610.53;5042120;28;20068;-69
2022/03/29 00:03:23;;;;;;;57.55;29.70;;;;;;;7.68;82.43;101609.00;5043971;28;20036;-69
2022/03/29 00:05:48;;;;;;;57.13;30.75;;;;;;;7.66;82.75;101616.56;5044154;28;20033;-69
2022/03/29 00:08:13;;;;;;;58.83;31.02;;;;;;;7.59;82.63;101610.16;5043751;28;20029;-69
2022/03/29 00:10:39;;;;;;;62.42;32.60;;;;;;;7.52;83.53;101603.78;5042683;28;20035;-69
2022/03/29 00:13:04;;;;;;;70.07;34.15;;;;;;;7.56;83.91;101607.00;5035975;28;20033;-69
2022/03/29 00:15:29;;;;;;;69.38;34.53;;;;;;;7.49;84.24;101604.16;5032808;28;20029;-69
2022/03/29 00:17:54;;;;;;;71.55;35.50;;;;;;;7.57;84.03;101601.31;5042720;28;20033;-69
2022/03/29 00:20:21;;;;;;;64.40;33.45;;;;;;;7.53;84.45;101595.38;5043882;28;20020;-69
2022/03/29 00:22:49;;;;;;;66.45;33.67;;;;;;;7.50;84.40;101594.91;5042802;28;20059;-69
2022/03/29 00:25:14;;;;;;;;;;;;;;;7.61;81.96;101596.31;5043564;28;20406;-69
2022/03/29 00:27:42;;;;;;;67.93;33.45;;;;;;;7.50;83.89;101594.91;5041561;28;19923;-69
2022/03/29 00:30:11;;;;;;;71.80;33.63;;;;;;;7.45;84.17;101591.91;5043513;28;20111;-69
2022/03/29 00:32:36;;;;;;;69.38;33.53;;;;;;;7.43;83.95;101589.38;5042080;28;20068;-69
2022/03/29 00:35:02;;;;;;;65.03;33.97;;;;;;;7.40;83.57;101588.91;5043430;28;20412;-68
2022/03/29 00:37:27;;;;;;;65.90;33.28;;;;;;;7.37;84.03;101589.31;5041838;28;20050;-69
2022/03/29 00:39:53;;;;;;;72.10;35.25;;;;;;;7.35;84.62;101580.44;5044067;28;20092;-69
2022/03/29 00:42:18;;;;;;;65.10;34.40;;;;;;;7.33;84.59;101582.53;5042769;28;20399;-69
2022/03/29 00:44:43;;;;;;;71.70;35.53;;;;;;;7.36;84.42;101571.22;5043481;28;20541;-69
2022/03/29 00:47:09;;;;;;;70.13;35.35;;;;;;;7.34;84.62;101570.53;5041695;28;20040;-68
2022/03/29 00:49:34;;;;;;;73.10;34.95;;;;;;;7.31;84.00;101570.94;5043477;28;20103;-69
2022/03/29 00:52:01;;;;;;;66.57;33.47;;;;;;;7.25;83.99;101573.41;5042836;28;20032;-69
2022/03/29 00:54:29;;;;;;;72.97;36.97;;;;;;;7.26;84.62;101560.59;5042497;28;20381;-70
2022/03/29 00:56:59;;;;;;;83.00;38.17;;;;;;;7.25;85.08;101559.75;5040031;28;20473;-69
2022/03/29 00:59:27;;;;;;;76.53;37.15;;;;;;;7.13;85.17;101561.25;5042232;28;20040;-70
2022/03/29 01:01:54;;;;;;;86.75;39.95;;;;;;;7.10;85.60;101560.81;5035513;28;20510;-68
2022/03/29 01:04:21;;;;;;;91.13;40.28;;;;;;;7.11;85.94;101551.56;5030702;28;20081;-69
2022/03/29 01:06:46;;;;;;;83.28;37.50;;;;;;;7.21;85.93;101552.97;5041052;28;20025;-69
2022/03/29 01:09:12;;;;;;;82.53;38.95;;;;;;;7.12;86.44;101545.06;5043168;28;20082;-69
2022/03/29 01:11:39;;;;;;;88.60;41.35;;;;;;;7.08;86.71;101544.59;5043416;28;20060;-69
2022/03/29 01:14:04;;;;;;;89.93;40.95;;;;;;;6.95;87.00;101539.81;5043831;28;20049;-69
2022/03/29 01:19:19;;;;;;;93.88;39.00;;;;;;;6.90;87.25;101538.69;5042592;28;20136;-69
2022/03/29 01:22:11;;;;;;;82.57;38.58;;;;;;;6.87;87.19;101539.91;5039701;28;20025;-69
2022/03/29 01:24:40;;;;;;;84.03;39.83;;;;;;;6.78;87.27;101534.72;5040380;28;20041;-69
2022/03/29 01:27:07;;;;;;;86.93;40.50;;;;;;;6.80;87.76;101538.16;5041121;28;20052;-69
2022/03/29 01:29:34;;;;;;;93.33;42.07;;;;;;;6.78;87.78;101534.72;5042627;28;20653;-69
2022/03/29 01:32:03;;;;;;;89.07;40.08;;;;;;;6.74;87.83;101540.59;5042361;28;20303;-69
2022/03/29 01:34:29;;;;;;;95.43;41.67;;;;;;;6.76;87.92;101538.50;5042223;28;20033;-70
2022/03/29 01:36:55;;;;;;;87.57;39.88;;;;;;;6.73;87.78;101533.41;5040713;28;20082;-69
2022/03/29 01:39:21;;;;;;;100.03;44.95;;;;;;;6.70;88.14;101533.81;5040415;28;20394;-69
2022/03/29 01:41:47;;;;;;;100.13;43.50;;;;;;;6.68;88.16;101535.00;5042717;28;20033;-70
2022/03/29 01:44:13;;;;;;;93.45;41.83;;;;;;;6.74;87.92;101528.78;5040622;28;20089;-69
2022/03/29 01:46:38;;;;;;;94.25;40.97;;;;;;;6.67;88.60;101530.59;5041114;28;20104;-65
2022/03/29 01:49:05;;;;;;;95.55;42.28;;;;;;;6.64;88.70;101523.66;5042789;28;20438;-70
2022/03/29 01:51:30;;;;;;;97.05;42.60;;;;;;;6.64;88.73;101528.22;5041654;28;20025;-69
2022/03/29 01:53:59;;;;;;;103.75;44.13;;;;;;;6.66;89.05;101515.25;5042439;28;20049;-70
2022/03/29 01:56:29;;;;;;;98.55;44.47;;;;;;;6.63;88.92;101513.75;5040235;28;20022;-69
2022/03/29 01:58:55;;;;;;;99.60;42.55;;;;;;;6.66;89.02;101509.81;5042166;28;20028;-69
2022/03/29 02:01:20;;;;;;;101.10;40.42;;;;;;;6.71;88.83;101502.75;5041126;28;20625;-70
2022/03/29 02:03:45;;;;;;;102.70;45.10;;;;;;;6.80;88.00;101498.03;5040316;28;20029;-69
2022/03/29 02:06:11;;;;;;;100.07;42.65;;;;;;;6.75;88.09;101501.31;5042221;28;20039;-69
2022/03/29 02:08:36;;;;;;;105.72;44.08;;;;;;;6.96;86.96;101496.97;5040708;28;20024;-70
2022/03/29 02:11:01;;;;;;;102.00;43.47;;;;;;;6.57;89.00;101503.59;5041604;28;20029;-69
2022/03/29 02:13:27;;;;;;;103.22;40.55;;;;;;;6.62;88.67;101495.69;5041871;28;20112;-69
2022/03/29 02:15:52;;;;;;;105.13;43.92;;;;;;;6.38;89.96;101487.78;5039894;28;20116;-69
2022/03/29 02:18:18;;;;;;;105.90;42.90;;;;;;;6.52;89.54;101486.94;5040850;28;20495;-68
2022/03/29 02:20:43;;;;;;;111.60;46.35;;;;;;;6.65;88.96;101480.81;5040914;28;20021;-68
2022/03/29 02:23:12;;;;;;;111.57;46.63;;;;;;;6.45;89.98;101475.09;5042202;28;20416;-68
2022/03/29 02:25:38;;;;;;;116.95;47.20;;;;;;;6.62;89.28;101476.56;5040818;28;20523;-69
2022/03/29 02:28:03;;;;;;;102.53;45.05;;;;;;;6.39;90.17;101481.31;5042379;28;20107;-69
2022/03/29 02:30:29;;;;;;;113.20;46.90;;;;;;;6.32;90.48;101474.88;5041675;28;20435;-69
2022/03/29 02:32:55;;;;;;;110.85;49.17;;;;;;;6.26;91.32;101476.47;5041433;28;20116;-69
2022/03/29 02:35:20;;;;;;;112.90;46.75;;;;;;;6.44;90.67;101473.41;5040368;28;20075;-70
2022/03/29 02:37:46;;;;;;;121.80;49.45;;;;;;;6.37;90.99;101475.16;5041377;28;20083;-70
2022/03/29 02:40:13;;;;;;;107.40;43.50;;;;;;;6.57;89.97;101467.25;5042487;28;20052;-69
2022/03/29 02:42:53;;;;;;;116.38;47.10;;;;;;;6.64;89.64;101460.88;5041696;28;20033;-69
2022/03/29 02:45:21;;;;;;;99.47;45.33;;;;;;;6.57;89.57;101465.38;5040070;28;20037;-69
2022/03/29 02:47:50;;;;;;;;;;;;;;;6.50;88.74;101462.56;5042167;28;20036;-69
2022/03/29 02:50:18;;;;;;;95.50;43.78;;;;;;;6.42;90.24;101448.16;5041163;28;19913;-69
2022/03/29 02:52:48;;;;;;;96.35;45.17;;;;;;;6.27;91.67;101447.31;5044890;28;20423;-69
2022/03/29 02:55:15;;;;;;;90.10;42.55;;;;;;;6.36;91.03;101444.31;5041205;28;20704;-69
2022/03/29 02:57:42;;;;;;;85.88;42.63;;;;;;;6.29;91.75;101442.53;5045004;28;20029;-70
2022/03/29 03:00:09;;;;;;;88.30;41.20;;;;;;;6.26;91.74;101442.91;5045201;28;20361;-69
2022/03/29 03:02:34;;;;;;;82.03;41.33;;;;;;;6.22;91.77;101437.81;5045481;28;20025;-69
2022/03/29 03:05:01;;;;;;;78.80;41.60;;;;;;;6.31;91.06;101435.00;5043183;28;20368;-69
2022/03/29 03:07:27;;;;;;;79.32;41.63;;;;;;;6.18;91.93;101433.78;5044543;28;20025;-68
2022/03/29 03:09:52;;;;;;;76.72;40.63;;;;;;;6.09;92.77;101421.28;5045529;28;20021;-69
2022/03/29 03:12:18;;;;;;;73.38;38.05;;;;;;;6.20;91.78;101429.00;5045150;28;20017;-68
2022/03/29 03:14:43;;;;;;;69.50;40.05;;;;;;;6.31;90.73;101429.56;5044093;28;20701;-69
2022/03/29 03:17:09;;;;;;;65.13;34.35;;;;;;;6.37;90.82;101418.72;5043806;28;20049;-70
2022/03/29 03:19:34;;;;;;;69.80;37.85;;;;;;;6.09;91.97;101423.16;5045619;28;20119;-69
2022/03/29 03:21:59;;;;;;;63.65;34.70;;;;;;;6.27;90.88;101420.03;5043251;28;20466;-69
2022/03/29 03:24:25;;;;;;;67.95;37.45;;;;;;;6.13;91.16;101411.69;5044171;28;20033;-69
2022/03/29 03:26:50;;;;;;;69.38;39.75;;;;;;;5.95;92.51;101411.19;5044809;28;20589;-69
2022/03/29 03:29:18;;;;;;;68.95;39.95;;;;;;;5.95;92.93;101408.47;5044332;28;20040;-69
2022/03/29 03:31:43;;;;;;;64.57;37.25;;;;;;;6.02;91.81;101420.31;5042145;28;20502;-69
2022/03/29 03:34:08;;;;;;;66.07;39.25;;;;;;;6.04;91.47;101421.00;5044304;28;20022;-63
2022/03/29 03:36:33;;;;;;;64.18;36.63;;;;;;;5.91;92.20;101420.75;5044719;28;20578;-69
2022/03/29 03:38:59;;;;;;;63.00;37.58;;;;;;;6.09;91.52;101413.09;5043731;28;20139;-69
2022/03/29 03:41:24;;;;;;;63.53;38.03;;;;;;;5.97;91.83;101417.31;5026085;28;20079;-69
2022/03/29 03:43:49;;;;;;;69.13;38.50;;;;;;;5.87;92.18;101420.25;5044573;28;20040;-69
2022/03/29 03:46:15;;;;;;;70.15;41.22;;;;;;;5.79;92.86;101408.63;5043263;28;20075;-69
2022/03/29 03:48:40;;;;;;;69.75;39.60;;;;;;;5.65;93.96;101408.38;5044343;28;20083;-69
2022/03/29 03:51:06;;;;;;;69.28;38.42;;;;;;;5.80;93.34;101410.31;5043798;28;20557;-69
2022/03/29 03:53:31;;;;;;;67.05;38.75;;;;;;;5.74;93.17;101406.44;5043648;28;20037;-70
2022/03/29 03:55:56;;;;;;;70.32;38.08;;;;;;;5.72;93.31;101403.88;5043915;28;20589;-69
2022/03/29 03:58:22;;;;;;;71.10;38.55;;;;;;;5.69;93.33;101398.81;5044115;28;20029;-70
2022/03/29 04:00:47;;;;;;;70.93;40.70;;;;;;;5.60;93.86;101394.47;5040997;28;20898;-69
2022/03/29 04:03:13;;;;;;;75.65;42.95;;;;;;;5.47;94.83;101383.34;5043647;28;20033;-69
2022/03/29 04:05:38;;;;;;;77.15;43.83;;;;;;;5.46;95.19;101392.56;5044804;28;20036;-68
2022/03/29 04:08:04;;;;;;;78.20;42.17;;;;;;;5.57;94.53;101394.81;5044251;28;20116;-69
2022/03/29 04:10:29;;;;;;;82.97;44.20;;;;;;;5.46;95.08;101395.28;5041843;28;20028;-70
2022/03/29 04:12:55;;;;;;;80.15;44.00;;;;;;;5.47;95.55;101388.78;5043171;28;20021;-70
2022/03/29 04:15:20;;;;;;;81.55;45.47;;;;;;;5.47;95.83;101391.53;5043277;28;20029;-69
2022/03/29 04:17:45;;;;;;;87.60;46.88;;;;;;;5.50;95.73;101384.88;5043820;28;20087;-70
2022/03/29 04:20:11;;;;;;;83.93;47.50;;;;;;;5.51;95.71;101372.94;5043915;28;20058;-69
2022/03/29 04:22:36;;;;;;;85.72;44.72;;;;;;;5.52;95.43;101375.47;5041754;28;20021;-69
2022/03/29 04:25:02;;;;;;;81.32;45.83;;;;;;;5.63;93.71;101382.38;5043724;28;20036;-69
2022/03/29 04:27:28;;;;;;;80.85;45.25;;;;;;;5.54;94.78;101375.31;5043934;28;20028;-69
2022/03/29 04:29:53;;;;;;;90.03;46.60;;;;;;;5.54;95.10;101378.03;5042281;28;20033;-70
2022/03/29 04:32:18;;;;;;;85.70;45.35;;;;;;;5.60;95.05;101372.69;5042397;28;20422;-69
2022/03/29 04:34:45;;;;;;;96.38;48.45;;;;;;;5.46;95.79;101370.75;5043663;28;20021;-69
2022/03/29 04:37:10;;;;;;;88.82;46.72;;;;;;;5.66;94.66;101371.94;5043217;28;20048;-69
2022/03/29 04:39:38;;;;;;;93.63;46.67;;;;;;;5.50;96.19;101365.78;5043800;28;20113;-70
2022/03/29 04:42:04;;;;;;;100.43;49.10;;;;;;;5.50;95.90;101372.09;5042941;28;20094;-69
2022/03/29 04:44:29;;;;;;;66.25;30.77;;;;;;;5.72;94.43;101357.56;5043015;28;20033;-68
2022/03/29 04:46:55;;;;;;;95.85;48.67;;;;;;;5.60;95.04;101355.47;5042938;28;20032;-69
2022/03/29 04:49:20;;;;;;;95.30;48.30;;;;;;;5.52;96.17;101359.13;5041562;28;20491;-69
2022/03/29 04:51:45;;;;;;;93.97;47.67;;;;;;;5.81;93.79;101352.88;5042200;28;20037;-69
2022/03/29 04:54:10;;;;;;;94.30;45.17;;;;;;;5.54;95.72;101354.34;5043065;28;20045;-68
2022/03/29 04:56:36;;;;;;;94.95;47.15;;;;;;;5.55;95.64;101358.75;5042661;28;20033;-67
2022/03/29 04:59:01;;;;;;;98.90;48.50;;;;;;;5.49;96.70;101354.06;5042370;28;20045;-69
2022/03/29 05:01:26;;;;;;;93.78;41.78;;;;;;;5.79;95.14;101354.09;5042369;28;20099;-69
2022/03/29 05:03:52;;;;;;;59.45;34.95;;;;;;;6.31;91.37;101345.81;5041476;28;20044;-69
2022/03/29 05:06:17;;;;;;;83.53;37.50;;;;;;;5.84;93.75;101354.38;5040958;28;20029;-69
2022/03/29 05:08:42;;;;;;;65.18;33.53;;;;;;;6.01;92.93;101345.00;5041719;28;20033;-69
2022/03/29 05:11:08;;;;;;;100.63;44.92;;;;;;;5.72;94.42;101343.91;5043347;28;20056;-68
2022/03/29 05:13:33;;;;;;;108.30;52.15;;;;;;;5.51;95.87;101341.09;5042723;28;20033;-68
2022/03/29 05:15:58;;;;;;;102.10;47.70;;;;;;;5.42;97.25;101337.63;5041045;28;20086;-69
2022/03/29 05:18:24;;;;;;;115.72;51.80;;;;;;;5.49;97.53;101337.72;5042383;28;20029;-69
2022/03/29 05:20:49;;;;;;;113.22;51.10;;;;;;;5.53;96.56;101339.03;5042775;28;20123;-69
2022/03/29 05:23:17;;;;;;;87.13;39.63;;;;;;;5.81;96.37;101336.50;5041347;28;20245;-70
2022/03/29 05:25:43;;;;;;;88.35;41.45;;;;;;;5.87;94.56;101329.47;5023385;28;20026;-69
2022/03/29 05:28:09;;;;;;;66.07;40.40;;;;;;;6.27;92.93;101330.03;5040653;28;20032;-63
2022/03/29 05:30:34;;;;;;;115.55;53.65;;;;;;;5.72;95.60;101327.56;5040972;28;20096;-69
2022/03/29 05:33:00;;;;;;;117.70;54.03;;;;;;;5.44;97.44;101327.38;5030142;28;20111;-69
2022/03/29 05:35:29;;;;;;;86.90;36.08;;;;;;;5.66;96.13;101328.31;5042745;28;20021;-69
2022/03/29 05:37:55;;;;;;;117.28;52.25;;;;;;;5.51;97.35;101330.19;5042057;28;20021;-68
2022/03/29 05:40:21;;;;;;;66.32;35.83;;;;;;;5.81;96.61;101330.22;5042237;28;20384;-68
2022/03/29 05:42:46;;;;;;;120.45;51.85;;;;;;;5.53;97.04;101330.88;5040741;28;20021;-68
2022/03/29 05:45:13;;;;;;;124.80;51.67;;;;;;;5.44;98.59;101330.09;5040486;28;20025;-68
2022/03/29 05:50:24;;;;;;;113.43;47.08;;;;;;;5.57;97.95;101340.34;5042576;28;20137;-69
2022/03/29 05:52:49;;;;;;;118.43;49.85;;;;;;;5.43;98.63;101327.56;5041747;28;20506;-68
2022/03/29 05:55:15;;;;;;;128.52;54.70;;;;;;;5.45;99.43;101330.94;5040435;28;20045;-69
2022/03/29 05:57:40;;;;;;;123.28;53.30;;;;;;;5.45;99.15;101333.66;5019898;28;20037;-69
2022/03/29 06:00:08;;;;;;;86.65;34.47;;;;;;;5.56;98.97;101326.91;5042413;28;20033;-69
2022/03/29 06:02:34;;;;;;;73.88;32.53;;;;;;;6.09;94.75;101325.00;5042370;28;20053;-69
2022/03/29 06:04:59;;;;;;;107.68;47.72;;;;;;;5.88;95.80;101322.97;5042811;28;20497;-70
2022/03/29 06:07:24;;;;;;;110.63;44.05;;;;;;;5.47;98.51;101327.00;5042033;28;20029;-70
2022/03/29 06:09:50;;;;;;;121.38;50.00;;;;;;;5.75;96.37;101325.53;5041358;28;20036;-70
2022/03/29 06:12:21;;;;;;;126.50;53.28;;;;;;;5.49;98.51;101332.25;5041931;28;20045;-70
2022/03/29 06:14:46;;;;;;;127.55;51.83;;;;;;;5.48;99.39;101336.03;5041771;28;20502;-71
2022/03/29 06:17:11;;;;;;;113.43;48.65;;;;;;;5.58;98.03;101338.50;5041196;28;20024;-70
2022/03/29 06:19:36;;;;;;;118.00;48.17;;;;;;;5.55;99.28;101341.56;5042273;28;20036;-70
2022/03/29 06:22:02;;;;;;;112.82;50.28;;;;;;;5.84;96.56;101338.03;5031362;28;20361;-70
2022/03/29 06:24:28;;;;;;;116.80;51.08;;;;;;;5.57;98.42;101340.34;5042063;28;20043;-70
2022/03/29 06:26:53;;;;;;;114.85;51.65;;;;;;;5.67;98.20;101334.63;5044215;28;20444;-69
2022/03/29 06:29:18;;;;;;;117.03;50.05;;;;;;;5.45;99.57;101339.94;5043024;28;20414;-68
2022/03/29 06:31:43;;;;;;;87.88;35.88;;;;;;;5.65;99.00;101337.53;5043679;28;20156;-68
2022/03/29 06:34:09;;;;;;;116.75;50.38;;;;;;;5.49;100.00;101335.00;5046597;28;20036;-69
2022/03/29 06:36:34;;;;;;;109.85;47.22;;;;;;;5.60;99.82;101330.97;5046049;28;20029;-69
2022/03/29 06:38:59;;;;;;;122.85;48.67;;;;;;;5.52;100.00;101333.75;5045338;28;20037;-69
2022/03/29 06:41:25;;;;;;;116.68;50.58;;;;;;;5.63;99.10;101344.22;5044925;28;20605;-70
2022/03/29 06:43:50;;;;;;;120.30;50.47;;;;;;;5.52;100.00;101339.19;5044582;28;20041;-69
2022/03/29 06:46:16;;;;;;;70.68;30.80;;;;;;;5.68;100.00;101337.19;5045137;28;20025;-70
2022/03/29 06:48:41;;;;;;;110.72;49.08;;;;;;;5.77;97.93;101334.34;5044143;28;20020;-70
2022/03/29 06:51:12;;;;;;;114.93;47.42;;;;;;;5.79;98.20;101332.28;5044701;28;20045;-69
2022/03/29 06:53:38;;;;;;;114.82;51.05;;;;;;;5.68;98.45;101325.44;5046362;28;20045;-70
2022/03/29 06:56:04;;;;;;;120.00;50.53;;;;;;;5.60;100.00;101334.53;5046192;28;20426;-70
2022/03/29 06:58:30;;;;;;;119.10;51.03;;;;;;;5.74;99.44;101332.84;5043857;28;20049;-70
2022/03/29 07:00:56;;;;;;;114.70;45.88;;;;;;;5.70;100.00;101326.94;5044680;28;20157;-70
2022/03/29 07:03:22;;;;;;;129.82;51.95;;;;;;;5.72;99.36;101332.19;5042544;28;20499;-68
2022/03/29 07:05:48;;;;;;;112.28;46.95;;;;;;;5.71;99.94;101328.59;5045861;28;20108;-69
2022/03/29 07:08:16;;;;;;;127.07;52.20;;;;;;;5.87;98.65;101318.56;5045279;28;20021;-71
2022/03/29 07:13:26;;;;;;;114.55;48.42;;;;;;;5.90;98.86;101334.56;5041310;28;20047;-69
2022/03/29 07:15:51;;;;;;;129.05;48.63;;;;;;;5.88;98.64;101328.41;5042900;28;20029;-68
2022/03/29 07:18:17;;;;;;;86.90;36.88;;;;;;;6.34;95.23;101322.78;5044728;28;20040;-68
2022/03/29 07:20:42;;;;;;;118.53;50.30;;;;;;;6.00;96.67;101334.31;5044312;28;20040;-68
2022/03/29 07:23:08;;;;;;;126.65;51.35;;;;;;;5.82;98.46;101330.03;5043329;28;20033;-68
2022/03/29 07:25:33;;;;;;;88.65;34.03;;;;;;;6.33;94.06;101329.25;5039735;28;20017;-71
2022/03/29 07:27:59;;;;;;;90.57;37.63;;;;;;;5.89;96.67;101336.44;5039784;28;20127;-68
2022/03/29 07:30:25;;;;;;;99.97;39.15;;;;;;;6.14;95.01;101330.72;5043988;28;20348;-68
2022/03/29 07:32:52;;;;;;;82.78;38.53;;;;;;;6.23;95.19;101330.44;5044431;28;20024;-69
2022/03/29 07:35:20;;;;;;;122.65;46.97;;;;;;;5.96;96.85;101333.81;5043248;28;20048;-69
2022/03/29 07:37:46;;;;;;;87.37;41.97;;;;;;;6.12;96.95;101333.63;5043412;28;20781;-68
2022/03/29 07:40:17;;;;;;;126.88;46.92;;;;;;;5.86;98.49;101339.53;5042008;28;20123;-68
2022/03/29 07:42:43;;;;;;;122.38;43.80;;;;;;;5.73;99.01;101328.44;5039361;28;20031;-67
2022/03/29 07:45:13;;;;;;;152.38;54.70;;;;;;;5.82;99.03;101340.09;5038819;28;20395;-68
2022/03/29 07:47:41;;;;;;;80.25;38.22;;;;;;;6.38;96.70;101337.72;5045088;28;20029;-65
2022/03/29 07:50:07;;;;;;;132.20;54.45;;;;;;;6.05;96.97;101337.31;5040819;28;20090;-69
2022/03/29 07:52:38;;;;;;;122.95;48.33;;;;;;;5.94;98.38;101341.34;5032413;28;20037;-69
2022/03/29 07:55:07;;;;;;;143.85;55.58;;;;;;;5.83;100.00;101339.91;5037241;28;20037;-69
2022/03/29 07:57:33;;;;;;;142.15;53.65;;;;;;;6.19;97.73;101340.03;5044832;28;20419;-69
2022/03/29 07:59:59;;;;;;;129.15;50.00;;;;;;;5.96;99.66;101337.38;5043733;28;20122;-69
2022/03/29 08:02:24;;;;;;;118.57;46.22;;;;;;;6.04;99.72;101339.19;5044081;28;20487;-68
2022/03/29 08:04:49;;;;;;;125.28;51.67;;;;;;;6.19;97.91;101336.44;5042798;28;20545;-69
2022/03/29 08:07:14;;;;;;;124.20;50.05;;;;;;;6.34;96.69;101330.97;5041837;28;20063;-69
2022/03/29 08:09:40;;;;;;;111.85;44.53;;;;;;;6.24;96.90;101336.72;5040926;28;20033;-70
2022/03/29 08:12:05;;;;;;;120.53;50.10;;;;;;;6.14;98.21;101337.00;5041737;28;20036;-70
2022/03/29 08:14:32;;;;;;;119.85;50.30;;;;;;;6.10;98.92;101341.16;5023011;28;20791;-69
2022/03/29 08:16:57;;;;;;;80.93;33.47;;;;;;;6.46;95.72;101335.72;5043192;28;20017;-69
2022/03/29 08:19:23;;;;;;;91.63;38.85;;;;;;;6.35;96.65;101340.84;5041902;28;20043;-69
2022/03/29 08:21:49;;;;;;;112.70;49.30;;;;;;;6.21;97.86;101342.53;5041086;28;20036;-69
2022/03/29 08:24:17;;;;;;;108.45;46.83;;;;;;;6.15;98.77;101340.59;5040255;28;20107;-68
2022/03/29 08:26:43;;;;;;;101.72;42.28;;;;;;;6.22;97.46;101339.63;5038679;28;20114;-70
2022/03/29 08:29:08;;;;;;;73.50;36.28;;;;;;;6.56;95.20;101334.59;5043870;28;20029;-64
2022/03/29 08:31:34;;;;;;;79.70;34.95;;;;;;;6.55;95.96;101322.81;5034573;28;20475;-69
2022/03/29 08:33:59;;;;;;;114.13;49.88;;;;;;;6.20;98.21;101325.34;5043332;28;20086;-69
2022/03/29 08:36:25;;;;;;;100.20;43.05;;;;;;;6.36;96.78;101317.97;5041727;28;20554;-70
2022/03/29 08:38:50;;;;;;;110.15;47.50;;;;;;;6.27;97.89;101325.41;5042473;28;20116;-69
2022/03/29 08:41:16;;;;;;;112.97;47.58;;;;;;;6.34;97.71;101326.38;5043522;28;20445;-70
2022/03/29 08:43:42;;;;;;;115.07;50.20;;;;;;;6.33;98.82;101329.25;5039048;28;20055;-71
2022/03/29 08:46:08;;;;;;;80.82;34.95;;;;;;;6.61;96.68;101324.78;5045315;28;20036;-70
2022/03/29 08:48:33;;;;;;;109.57;48.90;;;;;;;6.53;96.67;101324.03;5042801;28;20029;-69
2022/03/29 08:51:00;;;;;;;98.53;45.47;;;;;;;6.55;97.00;101322.81;5055459;28;20094;-70
2022/03/29 08:53:28;;;;;;;106.97;46.85;;;;;;;6.46;97.59;101330.28;5036933;28;20060;-70
2022/03/29 08:55:53;;;;;;;96.00;40.17;;;;;;;6.73;94.61;101331.41;5036687;28;20542;-70
2022/03/29 08:58:21;;;;;;;95.70;43.40;;;;;;;6.63;95.07;101324.56;5041727;28;20037;-69
2022/03/29 09:00:48;;;;;;;94.88;40.33;;;;;;;6.54;96.15;101325.72;5039948;28;20028;-69
2022/03/29 09:03:15;;;;;;;97.90;40.83;;;;;;;6.60;96.16;101327.72;5041809;28;20108;-70
2022/03/29 09:05:40;;;;;;;89.63;37.72;;;;;;;6.72;94.82;101324.25;5041848;28;20070;-69
2022/03/29 09:08:11;;;;;;;105.13;47.05;;;;;;;6.50;97.00;101323.41;5034795;28;20476;-69
2022/03/29 09:10:48;;;;;;;85.40;38.15;;;;;;;6.85;95.21;101317.25;5043432;28;20403;-69
2022/03/29 09:13:27;;;;;;;96.07;44.50;;;;;;;6.77;95.71;101326.41;5036816;28;20112;-68
2022/03/29 09:15:54;;;;;;;98.68;44.72;;;;;;;6.67;96.67;101320.44;5042224;28;20029;-69
2022/03/29 09:18:21;;;;;;;83.05;36.88;;;;;;;6.80;96.17;101328.78;5041705;28;20033;-69
2022/03/29 09:20:47;;;;;;;69.32;37.42;;;;;;;7.37;92.64;101321.50;5041460;28;20438;-69
2022/03/29 09:23:18;;;;;;;100.15;45.40;;;;;;;6.87;93.83;101326.09;5042266;28;20063;-69
2022/03/29 09:25:48;;;;;;;101.15;44.60;;;;;;;6.75;95.75;101323.88;5039774;28;20155;-68
2022/03/29 09:28:22;;;;;;;91.80;41.20;;;;;;;6.81;95.83;101325.00;5041762;28;20031;-69
2022/03/29 09:30:50;;;;;;;103.18;46.80;;;;;;;7.02;94.08;101322.25;5026173;28;20395;-69
2022/03/29 09:33:18;;;;;;;102.18;47.20;;;;;;;6.92;95.02;101320.91;5040604;28;20028;-69
2022/03/29 09:36:00;;;;;;;101.13;46.57;;;;;;;7.03;93.79;101318.47;5038952;28;20033;-69
2022/03/29 09:38:39;;;;;;;94.80;45.90;;;;;;;6.91;95.06;101321.94;5041758;28;20138;-69
2022/03/29 09:41:21;;;;;;;90.35;42.83;;;;;;;6.98;95.55;101325.56;5043863;28;20076;-69
2022/03/29 09:44:03;;;;;;;91.13;45.15;;;;;;;7.17;94.04;101316.72;5034430;28;20453;-69
2022/03/29 09:46:30;;;;;;;96.63;44.30;;;;;;;7.21;93.60;101307.09;5022938;28;20056;-68
2022/03/29 09:49:00;;;;;;;95.82;46.17;;;;;;;7.17;93.69;101313.16;5038585;28;20033;-69
2022/03/29 09:51:27;;;;;;;93.40;44.17;;;;;;;7.28;92.48;101313.44;5022579;28;20117;-69
2022/03/29 09:53:55;;;;;;;91.55;45.67;;;;;;;7.07;94.31;101310.75;5027099;28;20152;-69
2022/03/29 09:56:28;;;;;;;84.00;38.30;;;;;;;7.22;94.06;101305.19;5023342;28;20029;-69
2022/03/29 09:59:06;;;;;;;89.80;44.92;;;;;;;7.24;93.49;101308.56;5029768;28;20430;-68
2022/03/29 10:01:32;;;;;;;95.70;42.95;;;;;;;7.17;94.17;101300.31;5036326;28;20065;-68
2022/03/29 10:04:01;;;;;;;92.55;44.33;;;;;;;7.12;94.42;101299.22;5046622;28;20566;-69
2022/03/29 10:06:26;;;;;;;;;;;;;;;7.38;92.88;101285.78;5046962;28;20036;-69
2022/03/29 10:11:43;;;;;;;88.32;41.20;;;;;;;7.34;93.40;101280.91;5042268;28;20291;-68
2022/03/29 10:14:12;;;;;;;83.78;39.75;;;;;;;7.60;90.78;101281.06;5042671;28;20033;-68
2022/03/29 10:16:37;;;;;;;88.25;42.35;;;;;;;7.43;93.06;101272.34;5044179;28;20082;-68
2022/03/29 10:19:03;;;;;;;85.00;41.85;;;;;;;7.59;92.50;101271.19;5047350;28;20033;-68
2022/03/29 10:21:29;;;;;;;85.35;42.95;;;;;;;7.57;92.52;101275.19;5045255;28;20028;-69
2022/03/29 10:23:54;;;;;;;90.40;43.10;;;;;;;7.65;91.56;101275.84;5045339;28;20428;-69
2022/03/29 10:26:22;;;;;;;85.63;42.53;;;;;;;7.62;92.75;101270.81;5040534;28;20044;-68
2022/03/29 10:28:48;;;;;;;84.55;41.40;;;;;;;7.78;92.54;101270.47;5034984;28;20036;-69
2022/03/29 10:31:36;;;;;;;85.22;42.88;;;;;;;7.90;91.20;101273.47;5044781;28;20044;-67
2022/03/29 10:34:39;;;;;;;76.28;36.45;;;;;;;8.09;90.77;101269.16;5045662;28;20118;-68
2022/03/29 10:37:11;;;;;;;66.32;29.75;;;;;;;8.35;88.60;101264.81;5002660;28;20740;-68
2022/03/29 10:39:52;;;;;;;85.13;42.75;;;;;;;8.13;88.70;101267.69;5027342;28;20096;-68
2022/03/29 10:42:38;;;;;;;50.92;26.40;;;;;;;8.45;87.78;101266.16;5034643;28;20361;-69
2022/03/29 10:45:13;;;;;;;82.05;43.40;;;;;;;8.51;86.76;101270.78;5034770;28;20025;-68
2022/03/29 10:47:41;;;;;;;69.25;36.78;;;;;;;8.42;86.17;101269.31;5045366;28;20025;-68
2022/03/29 10:50:08;;;;;;;61.97;29.67;;;;;;;8.24;86.16;101269.84;5046600;28;20044;-68
2022/03/29 10:52:48;;;;;;;91.70;46.20;;;;;;;7.97;89.91;101271.63;5042869;28;20299;-68
2022/03/29 10:55:23;;;;;;;75.47;36.45;;;;;;;8.27;89.40;101263.13;5045605;28;20492;-68
2022/03/29 10:58:04;;;;;;;81.38;37.50;;;;;;;8.55;86.80;101266.59;5046115;28;20095;-68
2022/03/29 11:00:31;;;;;;;78.53;38.72;;;;;;;8.32;89.05;101261.47;5045025;28;20040;-68
2022/03/29 11:03:14;;;;;;;90.28;44.80;;;;;;;8.38;89.13;101258.97;5043732;28;20036;-68
2022/03/29 11:06:10;;;;;;;50.47;24.55;;;;;;;8.58;86.70;101254.41;5045232;28;20025;-67
2022/03/29 11:09:19;;;;;;;82.82;42.97;;;;;;;8.53;87.67;101241.31;5036896;28;20091;-67
2022/03/29 11:11:51;;;;;;;68.68;36.00;;;;;;;8.71;84.86;101229.75;5036499;28;20132;-66
2022/03/29 11:14:28;;;;;;;71.43;34.20;;;;;;;8.89;84.30;101233.78;5044542;28;20071;-66
2022/03/29 11:16:56;;;;;;;62.65;32.17;;;;;;;8.95;83.27;101230.19;5042031;28;20033;-66
2022/03/29 11:19:59;;;;;;;79.63;44.05;;;;;;;8.67;86.74;101230.38;5042874;28;20029;-66
2022/03/29 11:22:42;;;;;;;82.13;44.67;;;;;;;9.03;85.42;101219.03;4975830;28;20034;-66
2022/03/29 11:25:10;;;;;;;73.90;39.80;;;;;;;9.22;83.35;101220.91;5024315;28;20121;-66
2022/03/29 11:27:38;;;;;;;71.85;49.58;;;;;;;9.56;79.70;101208.81;5041653;28;20016;-68